createdAt,value
2018-12-02T00:00:58.955Z,8.69
2018-12-02T00:01:59.595Z,8.70
2018-12-02T00:03:00.115Z,8.70
2018-12-02T00:04:00.711Z,8.71
2018-12-02T00:05:01.152Z,8.72
2018-12-02T00:06:01.657Z,8.72
2018-12-02T00:07:02.053Z,8.73
2018-12-02T00:08:02.679Z,8.73
2018-12-02T00:09:02.255Z,8.74
2018-12-02T00:10:04.054Z,8.75
2018-12-02T00:11:04.787Z,8.75
2018-12-02T00:12:05.290Z,8.76
2018-12-02T00:13:05.858Z,8.76
2018-12-02T00:14:06.327Z,8.77
2018-12-02T00:15:06.755Z,8.77
2018-12-02T00:16:07.188Z,8.78
2018-12-02T00:17:06.806Z,8.78
2018-12-02T00:18:08.323Z,8.79
2018-12-02T00:19:08.723Z,8.80
2018-12-02T00:20:09.262Z,8.81
2018-12-02T00:21:09.633Z,8.81
2018-12-02T00:22:10.194Z,8.82
2018-12-02T00:23:09.767Z,8.83
2018-12-02T00:24:11.442Z,8.83
2018-12-02T00:25:12.102Z,8.84
2018-12-02T00:26:12.570Z,8.84
2018-12-02T00:27:13.143Z,8.85
2018-12-02T00:28:13.542Z,8.85
2018-12-02T00:29:13.912Z,8.85
2018-12-02T00:30:14.469Z,8.85
2018-12-02T00:30:29.526Z,8.89
2018-12-02T00:31:30.088Z,8.89
2018-12-02T00:32:30.708Z,8.89
2018-12-02T00:33:31.079Z,8.89
2018-12-02T00:34:31.606Z,8.89
2018-12-02T00:35:31.298Z,8.89
2018-12-02T00:36:32.972Z,8.89
2018-12-02T00:37:33.467Z,8.89
2018-12-02T00:38:34.240Z,8.90
2018-12-02T00:39:34.704Z,8.90
2018-12-02T00:40:35.138Z,8.91
2018-12-02T00:41:34.690Z,8.92
2018-12-02T00:42:35.210Z,8.93
2018-12-02T00:43:36.586Z,8.93
2018-12-02T00:44:37.060Z,8.94
2018-12-02T00:45:37.464Z,8.94
2018-12-02T00:46:37.860Z,8.95
2018-12-02T00:47:38.253Z,8.96
2018-12-02T00:48:38.619Z,8.97
2018-12-02T00:49:38.719Z,8.98
2018-12-02T00:50:39.159Z,9.00
2018-12-02T00:51:39.499Z,9.01
2018-12-02T00:52:39.994Z,9.03
2018-12-02T00:53:40.390Z,9.04
2018-12-02T00:54:39.911Z,9.05
2018-12-02T00:55:41.237Z,9.06
2018-12-02T00:56:41.593Z,9.07
2018-12-02T00:57:42.052Z,9.07
2018-12-02T00:58:42.494Z,9.08
2018-12-02T00:59:42.875Z,9.09
2018-12-02T01:00:43.424Z,9.10
2018-12-02T01:01:44.075Z,9.10
2018-12-02T01:02:43.645Z,9.10
2018-12-02T01:03:45.442Z,9.11
2018-12-02T01:04:45.921Z,9.11
2018-12-02T01:05:46.319Z,9.11
2018-12-02T01:06:46.724Z,9.11
2018-12-02T01:07:47.376Z,9.11
2018-12-02T01:08:46.875Z,9.11
2018-12-02T01:09:48.540Z,9.11
2018-12-02T01:10:48.247Z,9.11
2018-12-02T01:11:49.734Z,9.11
2018-12-02T01:12:49.347Z,9.11
2018-12-02T01:13:50.903Z,9.11
2018-12-02T01:14:50.242Z,9.11
2018-12-02T01:15:51.797Z,9.11
2018-12-02T01:16:52.306Z,9.11
2018-12-02T01:17:52.868Z,9.11
2018-12-02T01:18:53.310Z,9.11
2018-12-02T01:19:53.671Z,9.11
2018-12-02T01:20:53.998Z,9.11
2018-12-02T01:21:02.428Z,9.10
2018-12-02T01:22:03.982Z,9.09
2018-12-02T01:23:04.317Z,9.09
2018-12-02T01:24:04.673Z,9.10
2018-12-02T01:25:05.104Z,9.09
2018-12-02T01:26:05.517Z,9.10
2018-12-02T01:27:05.990Z,9.10
2018-12-02T01:28:06.431Z,9.10
2018-12-02T01:29:06.897Z,9.10
2018-12-02T01:30:07.261Z,9.10
2018-12-02T01:31:07.609Z,9.10
2018-12-02T01:32:08.202Z,9.11
2018-12-02T01:33:07.999Z,9.11
2018-12-02T01:34:09.465Z,9.11
2018-12-02T01:35:10.054Z,9.11
2018-12-02T01:36:10.764Z,9.12
2018-12-02T01:37:11.563Z,9.12
2018-12-02T01:38:11.948Z,9.12
2018-12-02T01:39:12.280Z,9.13
2018-12-02T01:40:12.734Z,9.13
2018-12-02T01:41:13.436Z,9.13
2018-12-02T01:42:12.876Z,9.14
2018-12-02T01:43:14.740Z,9.14
2018-12-02T01:44:14.099Z,9.16
2018-12-02T01:45:15.791Z,9.17
2018-12-02T01:46:14.771Z,9.18
2018-12-02T01:47:16.230Z,9.18
2018-12-02T01:48:16.628Z,9.19
2018-12-02T01:49:16.955Z,9.20
2018-12-02T01:50:17.355Z,9.20
2018-12-02T01:51:17.711Z,9.21
2018-12-02T01:52:18.267Z,9.21
2018-12-02T01:53:18.403Z,9.22
2018-12-02T01:54:18.972Z,9.22
2018-12-02T01:55:19.863Z,9.22
2018-12-02T01:56:19.506Z,9.23
2018-12-02T01:57:20.969Z,9.23
2018-12-02T01:58:21.775Z,9.23
2018-12-02T01:59:22.643Z,9.23
2018-12-02T02:00:23.304Z,9.23
2018-12-02T02:01:22.756Z,9.23
2018-12-02T02:02:24.233Z,9.23
2018-12-02T02:03:24.679Z,9.23
2018-12-02T02:04:25.071Z,9.23
2018-12-02T02:05:25.647Z,9.23
2018-12-02T02:06:26.056Z,9.24
2018-12-02T02:07:26.716Z,9.24
2018-12-02T02:08:26.189Z,9.24
2018-12-02T02:09:27.581Z,9.24
2018-12-02T02:10:28.012Z,9.25
2018-12-02T02:11:27.593Z,9.26
2018-12-02T02:11:35.640Z,9.39
2018-12-02T02:12:37.110Z,9.39
2018-12-02T02:13:37.536Z,9.39
2018-12-02T02:14:37.565Z,9.39
2018-12-02T02:15:38.014Z,9.39
2018-12-02T02:16:38.407Z,9.39
2018-12-02T02:17:38.781Z,9.39
2018-12-02T02:18:39.137Z,9.39
2018-12-02T02:19:39.534Z,9.40
2018-12-02T02:20:38.853Z,9.40
2018-12-02T02:21:40.287Z,9.40
2018-12-02T02:22:40.678Z,9.40
2018-12-02T02:23:41.107Z,9.41
2018-12-02T02:24:41.462Z,9.41
2018-12-02T02:25:41.921Z,9.41
2018-12-02T02:26:42.302Z,9.41
2018-12-02T02:27:42.646Z,9.41
2018-12-02T02:28:42.980Z,9.40
2018-12-02T02:29:43.327Z,9.40
2018-12-02T02:30:43.752Z,9.40
2018-12-02T02:31:44.272Z,9.40
2018-12-02T02:32:44.585Z,9.40
2018-12-02T02:33:44.910Z,9.40
2018-12-02T02:34:45.153Z,9.40
2018-12-02T02:35:45.467Z,9.39
2018-12-02T02:36:45.918Z,9.39
2018-12-02T02:37:46.189Z,9.39
2018-12-02T02:38:46.609Z,9.39
2018-12-02T02:39:46.968Z,9.39
2018-12-02T02:40:47.457Z,9.38
2018-12-02T02:41:47.863Z,9.38
2018-12-02T02:42:48.282Z,9.38
2018-12-02T02:43:48.726Z,9.37
2018-12-02T02:44:49.075Z,9.37
2018-12-02T02:45:49.590Z,9.37
2018-12-02T02:46:50.013Z,9.37
2018-12-02T02:47:50.349Z,9.37
2018-12-02T02:48:50.695Z,9.37
2018-12-02T02:49:51.119Z,9.37
2018-12-02T02:50:51.551Z,9.37
2018-12-02T02:51:52.034Z,9.37
2018-12-02T02:52:52.988Z,9.37
2018-12-02T02:53:53.298Z,9.37
2018-12-02T02:54:53.766Z,9.37
2018-12-02T02:55:53.833Z,9.37
2018-12-02T02:56:02.275Z,9.39
2018-12-02T02:57:03.599Z,9.38
2018-12-02T02:58:03.942Z,9.38
2018-12-02T02:59:04.235Z,9.39
2018-12-02T03:00:04.655Z,9.39
2018-12-02T03:01:05.082Z,9.39
2018-12-02T03:02:05.517Z,9.39
2018-12-02T03:03:05.868Z,9.39
2018-12-02T03:04:06.479Z,9.39
2018-12-02T03:05:07.041Z,9.39
2018-12-02T03:06:07.624Z,9.39
2018-12-02T03:07:08.010Z,9.38
2018-12-02T03:08:08.455Z,9.38
2018-12-02T03:09:08.890Z,9.37
2018-12-02T03:10:09.450Z,9.37
2018-12-02T03:11:09.884Z,9.36
2018-12-02T03:12:10.215Z,9.35
2018-12-02T03:13:10.631Z,9.34
2018-12-02T03:14:11.235Z,9.33
2018-12-02T03:15:11.581Z,9.32
2018-12-02T03:16:12.082Z,9.31
2018-12-02T03:17:12.469Z,9.30
2018-12-02T03:18:12.889Z,9.28
2018-12-02T03:19:12.246Z,9.27
2018-12-02T03:20:13.924Z,9.25
2018-12-02T03:21:14.308Z,9.24
2018-12-02T03:22:14.692Z,9.22
2018-12-02T03:23:14.819Z,9.21
2018-12-02T03:24:15.388Z,9.19
2018-12-02T03:25:16.286Z,9.18
2018-12-02T03:26:15.598Z,9.16
2018-12-02T03:27:17.091Z,9.14
2018-12-02T03:28:16.373Z,9.12
2018-12-02T03:29:17.801Z,9.10
2018-12-02T03:30:18.246Z,9.08
2018-12-02T03:31:18.625Z,9.06
2018-12-02T03:32:19.119Z,9.04
2018-12-02T03:33:19.484Z,9.02
2018-12-02T03:34:19.928Z,9.00
2018-12-02T03:35:52.450Z,8.71
2018-12-02T03:36:52.133Z,8.71
2018-12-02T03:37:53.552Z,8.71
2018-12-02T03:38:53.986Z,8.70
2018-12-02T03:39:54.372Z,8.70
2018-12-02T03:40:54.801Z,8.70
2018-12-02T03:41:55.394Z,8.69
2018-12-02T03:42:56.048Z,8.69
2018-12-02T03:43:56.478Z,8.68
2018-12-02T03:44:56.924Z,8.67
2018-12-02T03:45:57.280Z,8.66
2018-12-02T03:46:57.699Z,8.65
2018-12-02T03:47:58.175Z,8.65
2018-12-02T03:48:58.692Z,8.64
2018-12-02T03:49:59.158Z,8.63
2018-12-02T03:50:59.656Z,8.62
2018-12-02T03:51:59.953Z,8.61
2018-12-02T03:53:00.303Z,8.60
2018-12-02T03:54:00.818Z,8.59
2018-12-02T03:55:01.285Z,8.58
2018-12-02T03:56:01.776Z,8.57
2018-12-02T03:57:02.134Z,8.56
2018-12-02T03:58:02.520Z,8.54
2018-12-02T03:59:02.931Z,8.53
2018-12-02T04:00:03.355Z,8.51
2018-12-02T04:01:02.813Z,8.50
2018-12-02T04:02:05.211Z,8.49
2018-12-02T04:03:04.604Z,8.47
2018-12-02T04:04:05.039Z,8.46
2018-12-02T04:05:05.394Z,8.45
2018-12-02T04:06:05.848Z,8.44
2018-12-02T04:07:06.289Z,8.43
2018-12-02T04:08:06.735Z,8.42
2018-12-02T04:09:07.240Z,8.42
2018-12-02T04:10:07.713Z,8.40
2018-12-02T04:11:08.275Z,8.39
2018-12-02T04:12:08.627Z,8.38
2018-12-02T04:13:08.068Z,8.38
2018-12-02T04:14:09.766Z,8.37
2018-12-02T04:15:10.158Z,8.36
2018-12-02T04:16:10.618Z,8.36
2018-12-02T04:17:11.356Z,8.35
2018-12-02T04:18:12.021Z,8.34
2018-12-02T04:19:12.541Z,8.34
2018-12-02T04:20:12.947Z,8.34
2018-12-02T04:21:13.409Z,8.34
2018-12-02T04:22:14.006Z,8.33
2018-12-02T04:23:14.461Z,8.33
2018-12-02T04:23:22.546Z,8.33
2018-12-02T04:24:23.928Z,8.33
2018-12-02T04:25:24.392Z,8.33
2018-12-02T04:26:24.727Z,8.33
2018-12-02T04:27:25.026Z,8.33
2018-12-02T04:28:26.389Z,8.33
2018-12-02T04:29:25.853Z,8.33
2018-12-02T04:30:26.373Z,8.33
2018-12-02T04:31:26.917Z,8.33
2018-12-02T04:32:27.396Z,8.33
2018-12-02T04:33:27.746Z,8.33
2018-12-02T04:34:28.100Z,8.33
2018-12-02T04:35:28.632Z,8.33
2018-12-02T04:36:28.935Z,8.32
2018-12-02T04:37:29.413Z,8.32
2018-12-02T04:38:29.838Z,8.32
2018-12-02T04:39:30.147Z,8.32
2018-12-02T04:40:30.490Z,8.32
2018-12-02T04:41:30.813Z,8.33
2018-12-02T04:42:31.105Z,8.33
2018-12-02T04:43:31.503Z,8.33
2018-12-02T04:44:32.036Z,8.33
2018-12-02T04:45:32.404Z,8.34
2018-12-02T04:46:32.734Z,8.34
2018-12-02T04:47:33.055Z,8.34
2018-12-02T04:48:33.754Z,8.34
2018-12-02T04:49:34.044Z,8.34
2018-12-02T04:50:34.890Z,8.35
2018-12-02T04:51:35.796Z,8.35
2018-12-02T04:52:36.221Z,8.35
2018-12-02T04:53:36.646Z,8.34
2018-12-02T04:54:37.013Z,8.34
2018-12-02T04:55:37.330Z,8.34
2018-12-02T04:56:37.633Z,8.34
2018-12-02T04:57:38.211Z,8.34
2018-12-02T04:58:38.770Z,8.34
2018-12-02T04:59:39.164Z,8.34
2018-12-02T05:00:39.580Z,8.33
2018-12-02T05:01:39.915Z,8.33
2018-12-02T05:02:40.430Z,8.33
2018-12-02T05:03:40.764Z,8.33
2018-12-02T05:04:41.180Z,8.33
2018-12-02T05:05:41.726Z,8.32
2018-12-02T05:06:42.019Z,8.32
2018-12-02T05:07:42.299Z,8.32
2018-12-02T05:08:42.712Z,8.32
2018-12-02T05:08:51.061Z,8.32
2018-12-02T05:09:52.258Z,8.32
2018-12-02T05:10:52.771Z,8.32
2018-12-02T05:11:53.234Z,8.32
2018-12-02T05:12:54.196Z,8.32
2018-12-02T05:13:54.832Z,8.32
2018-12-02T05:14:55.067Z,8.31
2018-12-02T05:15:55.439Z,8.31
2018-12-02T05:16:55.744Z,8.31
2018-12-02T05:17:56.105Z,8.31
2018-12-02T05:18:56.494Z,8.31
2018-12-02T05:19:56.802Z,8.32
2018-12-02T05:20:57.319Z,8.32
2018-12-02T05:21:57.645Z,8.32
2018-12-02T05:22:57.953Z,8.32
2018-12-02T05:23:58.346Z,8.33
2018-12-02T05:24:58.640Z,8.33
2018-12-02T05:25:59.087Z,8.34
2018-12-02T05:26:59.533Z,8.34
2018-12-02T05:27:59.860Z,8.34
2018-12-02T05:28:59.477Z,8.35
2018-12-02T05:30:00.773Z,8.35
2018-12-02T05:31:01.243Z,8.35
2018-12-02T05:32:06.781Z,8.35
2018-12-02T05:33:02.449Z,8.36
2018-12-02T05:34:02.769Z,8.36
2018-12-02T05:35:03.093Z,8.36
2018-12-02T05:36:03.605Z,8.36
2018-12-02T05:37:03.975Z,8.37
2018-12-02T05:38:04.340Z,8.37
2018-12-02T05:39:04.869Z,8.38
2018-12-02T05:40:04.342Z,8.38
2018-12-02T05:41:05.815Z,8.38
2018-12-02T05:42:08.424Z,8.39
2018-12-02T05:43:07.960Z,8.39
2018-12-02T05:44:12.516Z,8.39
2018-12-02T05:45:07.957Z,8.40
2018-12-02T05:46:08.422Z,8.40
2018-12-02T05:47:08.497Z,8.41
2018-12-02T05:48:09.278Z,8.41
2018-12-02T05:49:09.815Z,8.42
2018-12-02T05:50:10.440Z,8.42
2018-12-02T05:51:10.808Z,8.43
2018-12-02T05:52:11.183Z,8.43
2018-12-02T05:53:11.540Z,8.44
2018-12-02T05:54:11.914Z,8.44
2018-12-02T05:55:12.193Z,8.45
2018-12-02T05:56:12.917Z,8.46
2018-12-02T05:57:13.212Z,8.47
2018-12-02T05:57:21.732Z,8.60
2018-12-02T05:58:23.082Z,8.60
2018-12-02T05:59:23.659Z,8.60
2018-12-02T06:00:24.078Z,8.60
2018-12-02T06:01:24.590Z,8.60
2018-12-02T06:02:25.064Z,8.60
2018-12-02T06:03:25.491Z,8.60
2018-12-02T06:04:25.894Z,8.60
2018-12-02T06:05:26.322Z,8.60
2018-12-02T06:06:26.780Z,8.60
2018-12-02T06:07:27.165Z,8.60
2018-12-02T06:08:27.738Z,8.60
2018-12-02T06:09:28.190Z,8.60
2018-12-02T06:10:28.604Z,8.61
2018-12-02T06:11:29.074Z,8.61
2018-12-02T06:12:29.549Z,8.61
2018-12-02T06:13:30.072Z,8.62
2018-12-02T06:14:30.406Z,8.62
2018-12-02T06:15:31.045Z,8.62
2018-12-02T06:16:31.691Z,8.62
2018-12-02T06:17:32.104Z,8.63
2018-12-02T06:18:32.479Z,8.63
2018-12-02T06:19:32.939Z,8.63
2018-12-02T06:20:33.438Z,8.64
2018-12-02T06:21:33.999Z,8.64
2018-12-02T06:22:34.502Z,8.65
2018-12-02T06:23:35.119Z,8.65
2018-12-02T06:24:35.536Z,8.66
2018-12-02T06:25:36.036Z,8.66
2018-12-02T06:26:36.470Z,8.67
2018-12-02T06:27:36.892Z,8.67
2018-12-02T06:28:37.242Z,8.67
2018-12-02T06:29:37.581Z,8.67
2018-12-02T06:30:38.047Z,8.67
2018-12-02T06:31:38.674Z,8.67
2018-12-02T06:32:39.024Z,8.67
2018-12-02T06:33:39.491Z,8.67
2018-12-02T06:34:39.875Z,8.67
2018-12-02T06:35:40.334Z,8.67
2018-12-02T06:36:41.120Z,8.67
2018-12-02T06:37:40.082Z,8.67
2018-12-02T06:38:41.475Z,8.67
2018-12-02T06:39:41.924Z,8.67
2018-12-02T06:40:42.368Z,8.67
2018-12-02T06:41:42.842Z,8.67
2018-12-02T06:42:43.253Z,8.68
2018-12-02T06:43:43.706Z,8.68
2018-12-02T06:43:52.376Z,8.70
2018-12-02T06:44:52.736Z,8.70
2018-12-02T06:45:53.421Z,8.70
2018-12-02T06:46:53.819Z,8.70
2018-12-02T06:47:54.668Z,8.69
2018-12-02T06:48:55.064Z,8.69
2018-12-02T06:49:55.550Z,8.69
2018-12-02T06:50:56.078Z,8.69
2018-12-02T06:51:56.460Z,8.69
2018-12-02T06:52:56.823Z,8.69
2018-12-02T06:53:57.400Z,8.69
2018-12-02T06:54:57.872Z,8.69
2018-12-02T06:55:58.423Z,8.70
2018-12-02T06:56:59.134Z,8.70
2018-12-02T06:57:59.851Z,8.70
2018-12-02T06:59:00.240Z,8.71
2018-12-02T07:00:00.669Z,8.71
2018-12-02T07:01:01.125Z,8.71
2018-12-02T07:02:01.610Z,8.72
2018-12-02T07:03:02.027Z,8.72
2018-12-02T07:04:02.490Z,8.72
2018-12-02T07:05:02.945Z,8.72
2018-12-02T07:06:03.515Z,8.72
2018-12-02T07:07:04.212Z,8.73
2018-12-02T07:08:04.971Z,8.73
2018-12-02T07:09:05.477Z,8.73
2018-12-02T07:10:05.836Z,8.73
2018-12-02T07:11:06.321Z,8.74
2018-12-02T07:12:06.799Z,8.74
2018-12-02T07:13:07.314Z,8.74
2018-12-02T07:14:07.835Z,8.74
2018-12-02T07:15:08.627Z,8.74
2018-12-02T07:16:09.264Z,8.74
2018-12-02T07:17:09.953Z,8.74
2018-12-02T07:18:09.325Z,8.74
2018-12-02T07:19:10.852Z,8.74
2018-12-02T07:20:11.293Z,8.74
2018-12-02T07:21:11.908Z,8.74
2018-12-02T07:22:12.382Z,8.74
2018-12-02T07:23:12.833Z,8.74
2018-12-02T07:24:13.335Z,8.74
2018-12-02T07:25:14.014Z,8.74
2018-12-02T07:26:14.733Z,8.74
2018-12-02T07:27:15.351Z,8.74
2018-12-02T07:28:15.967Z,8.73
2018-12-02T07:29:16.597Z,8.73
2018-12-02T07:29:25.092Z,8.73
2018-12-02T07:30:26.037Z,8.73
2018-12-02T07:31:26.621Z,8.73
2018-12-02T07:32:27.073Z,8.73
2018-12-02T07:33:27.593Z,8.73
2018-12-02T07:34:28.162Z,8.73
2018-12-02T07:35:28.678Z,8.74
2018-12-02T07:36:29.172Z,8.74
2018-12-02T07:37:29.478Z,8.75
2018-12-02T07:38:30.448Z,8.75
2018-12-02T07:39:31.921Z,8.75
2018-12-02T07:40:30.259Z,8.76
2018-12-02T07:41:31.725Z,8.76
2018-12-02T07:42:32.242Z,8.77
2018-12-02T07:43:32.677Z,8.77
2018-12-02T07:44:33.484Z,8.78
2018-12-02T07:45:34.048Z,8.78
2018-12-02T07:46:33.601Z,8.78
2018-12-02T07:47:35.099Z,8.79
2018-12-02T07:48:35.730Z,8.80
2018-12-02T07:49:36.433Z,8.80
2018-12-02T07:50:36.814Z,8.81
2018-12-02T07:51:37.297Z,8.81
2018-12-02T07:52:37.620Z,8.82
2018-12-02T07:53:38.006Z,8.83
2018-12-02T07:54:38.411Z,8.83
2018-12-02T07:55:38.725Z,8.84
2018-12-02T07:56:39.050Z,8.85
2018-12-02T07:57:39.410Z,8.85
2018-12-02T07:58:39.791Z,8.86
2018-12-02T07:59:40.187Z,8.87
2018-12-02T08:00:40.548Z,8.88
2018-12-02T08:01:41.048Z,8.89
2018-12-02T08:02:41.471Z,8.90
2018-12-02T08:03:41.907Z,8.91
2018-12-02T08:04:43.347Z,8.92
2018-12-02T08:05:42.723Z,8.93
2018-12-02T08:06:43.027Z,8.94
2018-12-02T08:07:43.371Z,8.96
2018-12-02T08:08:43.746Z,8.97
2018-12-02T08:09:43.138Z,8.98
2018-12-02T08:10:44.551Z,9.00
2018-12-02T08:11:44.923Z,9.01
2018-12-02T08:12:45.502Z,9.02
2018-12-02T08:13:45.811Z,9.04
2018-12-02T08:14:46.137Z,9.05
2018-12-02T08:14:54.198Z,9.27
2018-12-02T08:15:55.551Z,9.27
2018-12-02T08:16:55.962Z,9.27
2018-12-02T08:17:56.417Z,9.27
2018-12-02T08:18:56.869Z,9.28
2018-12-02T08:19:57.294Z,9.29
2018-12-02T08:20:57.690Z,9.29
2018-12-02T08:21:58.033Z,9.30
2018-12-02T08:22:58.738Z,9.30
2018-12-02T08:23:59.205Z,9.31
2018-12-02T08:24:59.545Z,9.32
2018-12-02T08:26:00.159Z,9.33
2018-12-02T08:27:00.582Z,9.34
2018-12-02T08:28:01.103Z,9.35
2018-12-02T08:29:01.512Z,9.36
2018-12-02T08:30:02.355Z,9.37
2018-12-02T08:31:02.744Z,9.38
2018-12-02T08:32:03.147Z,9.39
2018-12-02T08:33:03.494Z,9.40
2018-12-02T08:34:04.062Z,9.41
2018-12-02T08:35:04.489Z,9.42
2018-12-02T08:36:03.933Z,9.43
2018-12-02T08:37:05.458Z,9.44
2018-12-02T08:38:05.970Z,9.44
2018-12-02T08:39:06.550Z,9.45
2018-12-02T08:40:06.938Z,9.46
2018-12-02T08:41:07.430Z,9.47
2018-12-02T08:42:08.161Z,9.47
2018-12-02T08:43:08.695Z,9.48
2018-12-02T08:44:09.123Z,9.48
2018-12-02T08:45:09.392Z,9.49
2018-12-02T08:46:09.848Z,9.50
2018-12-02T08:47:10.290Z,9.50
2018-12-02T08:48:10.916Z,9.51
2018-12-02T08:49:11.468Z,9.52
2018-12-02T08:50:12.283Z,9.53
2018-12-02T08:51:12.742Z,9.53
2018-12-02T08:52:13.197Z,9.54
2018-12-02T08:53:13.739Z,9.55
2018-12-02T08:54:14.149Z,9.56
2018-12-02T08:55:14.687Z,9.56
2018-12-02T08:56:15.085Z,9.57
2018-12-02T08:57:15.634Z,9.58
2018-12-02T08:58:16.033Z,9.58
2018-12-02T08:59:16.457Z,9.59
2018-12-02T09:00:16.838Z,9.60
2018-12-02T09:01:16.904Z,9.61
2018-12-02T09:01:25.408Z,9.73
2018-12-02T09:02:26.901Z,9.73
2018-12-02T09:03:27.308Z,9.73
2018-12-02T09:04:27.747Z,9.74
2018-12-02T09:05:28.132Z,9.74
2018-12-02T09:06:28.566Z,9.75
2018-12-02T09:07:29.109Z,9.76
2018-12-02T09:08:29.994Z,9.76
2018-12-02T09:09:30.376Z,9.77
2018-12-02T09:10:30.884Z,9.78
2018-12-02T09:11:31.324Z,9.79
2018-12-02T09:12:32.129Z,9.80
2018-12-02T09:13:32.573Z,9.82
2018-12-02T09:14:33.152Z,9.83
2018-12-02T09:15:33.567Z,9.85
2018-12-02T09:16:33.988Z,9.86
2018-12-02T09:17:34.819Z,9.87
2018-12-02T09:18:35.253Z,9.87
2018-12-02T09:19:36.272Z,9.88
2018-12-02T09:20:36.798Z,9.89
2018-12-02T09:21:37.235Z,9.89
2018-12-02T09:22:37.600Z,9.90
2018-12-02T09:23:37.944Z,9.91
2018-12-02T09:24:38.262Z,9.92
2018-12-02T09:25:38.814Z,9.93
2018-12-02T09:26:39.294Z,9.93
2018-12-02T09:27:39.664Z,9.94
2018-12-02T09:28:40.274Z,9.95
2018-12-02T09:29:39.550Z,9.96
2018-12-02T09:30:40.123Z,9.97
2018-12-02T09:31:41.650Z,9.98
2018-12-02T09:32:42.069Z,9.99
2018-12-02T09:33:42.505Z,9.99
2018-12-02T09:34:43.108Z,10.00
2018-12-02T09:35:43.766Z,10.00
2018-12-02T09:36:44.202Z,10.01
2018-12-02T09:37:44.945Z,10.01
2018-12-02T09:38:45.445Z,10.02
2018-12-02T09:39:45.901Z,10.02
2018-12-02T09:40:46.441Z,10.02
2018-12-02T09:41:46.937Z,10.02
2018-12-02T09:42:47.434Z,10.03
2018-12-02T09:43:48.063Z,10.03
2018-12-02T09:44:48.562Z,10.04
2018-12-02T09:45:49.074Z,10.05
2018-12-02T09:46:49.494Z,10.06
2018-12-02T09:46:57.893Z,10.21
2018-12-02T09:47:58.718Z,10.20
2018-12-02T09:48:59.241Z,10.20
2018-12-02T09:49:59.917Z,10.20
2018-12-02T09:51:00.404Z,10.20
2018-12-02T09:52:00.788Z,10.20
2018-12-02T09:53:02.295Z,10.20
2018-12-02T09:54:01.818Z,10.20
2018-12-02T09:55:02.323Z,10.19
2018-12-02T09:56:02.797Z,10.19
2018-12-02T09:57:03.534Z,10.20
2018-12-02T09:58:04.074Z,10.20
2018-12-02T09:59:04.588Z,10.21
2018-12-02T10:00:04.963Z,10.22
2018-12-02T10:01:04.996Z,10.23
2018-12-02T10:02:06.610Z,10.24
2018-12-02T10:03:05.851Z,10.25
2018-12-02T10:04:06.494Z,10.26
2018-12-02T10:05:06.856Z,10.26
2018-12-02T10:06:07.733Z,10.27
2018-12-02T10:07:08.075Z,10.28
2018-12-02T10:08:08.422Z,10.29
2018-12-02T10:09:08.142Z,10.30
2018-12-02T10:10:09.505Z,10.31
2018-12-02T10:11:08.704Z,10.32
2018-12-02T10:12:10.033Z,10.33
2018-12-02T10:13:10.040Z,10.34
2018-12-02T10:14:11.015Z,10.35
2018-12-02T10:15:11.274Z,10.36
2018-12-02T10:16:15.697Z,10.37
2018-12-02T10:17:11.399Z,10.38
2018-12-02T10:18:12.987Z,10.39
2018-12-02T10:19:13.539Z,10.39
2018-12-02T10:20:13.815Z,10.41
2018-12-02T10:21:14.608Z,10.42
2018-12-02T10:22:15.464Z,10.43
2018-12-02T10:23:16.013Z,10.44
2018-12-02T10:24:16.456Z,10.46
2018-12-02T10:25:16.997Z,10.47
2018-12-02T10:26:16.167Z,10.48
2018-12-02T10:27:17.442Z,10.50
2018-12-02T10:28:17.727Z,10.51
2018-12-02T10:29:18.497Z,10.53
2018-12-02T10:30:19.158Z,10.56
2018-12-02T10:30:28.236Z,10.91
2018-12-02T10:31:29.531Z,10.91
2018-12-02T10:32:30.469Z,10.91
2018-12-02T10:33:30.570Z,10.91
2018-12-02T10:34:31.076Z,10.91
2018-12-02T10:35:31.352Z,10.91
2018-12-02T10:36:31.776Z,10.91
2018-12-02T10:37:31.932Z,10.91
2018-12-02T10:38:32.121Z,10.91
2018-12-02T10:39:32.233Z,10.92
2018-12-02T10:40:32.804Z,10.92
2018-12-02T10:41:31.776Z,10.93
2018-12-02T10:42:33.278Z,10.93
2018-12-02T10:43:33.439Z,10.94
2018-12-02T10:44:33.857Z,10.95
2018-12-02T10:45:34.049Z,10.96
2018-12-02T10:46:34.499Z,10.96
2018-12-02T10:47:34.765Z,10.97
2018-12-02T10:48:35.077Z,10.99
2018-12-02T10:49:35.473Z,11.00
2018-12-02T10:50:35.945Z,11.01
2018-12-02T10:51:36.445Z,11.02
2018-12-02T10:52:36.684Z,11.03
2018-12-02T10:53:36.892Z,11.04
2018-12-02T10:54:37.179Z,11.06
2018-12-02T10:55:37.452Z,11.07
2018-12-02T10:56:37.949Z,11.08
2018-12-02T10:57:37.969Z,11.10
2018-12-02T10:58:38.213Z,11.11
2018-12-02T10:59:38.792Z,11.13
2018-12-02T11:00:39.204Z,11.14
2018-12-02T11:01:39.548Z,11.15
2018-12-02T11:02:39.564Z,11.17
2018-12-02T11:03:39.824Z,11.18
2018-12-02T11:04:40.173Z,11.19
2018-12-02T11:05:40.593Z,11.21
2018-12-02T11:06:40.888Z,11.22
2018-12-02T11:07:41.319Z,11.24
2018-12-02T11:08:41.403Z,11.25
2018-12-02T11:09:41.814Z,11.27
2018-12-02T11:10:42.017Z,11.29
2018-12-02T11:11:42.383Z,11.31
2018-12-02T11:12:42.665Z,11.33
2018-12-02T11:13:42.873Z,11.36
2018-12-02T11:14:43.139Z,11.38
2018-12-02T11:14:52.066Z,11.76
2018-12-02T11:15:53.451Z,11.76
2018-12-02T11:16:53.793Z,11.76
2018-12-02T11:17:54.259Z,11.77
2018-12-02T11:18:54.727Z,11.77
2018-12-02T11:19:55.025Z,11.78
2018-12-02T11:20:55.255Z,11.78
2018-12-02T11:21:55.459Z,11.79
2018-12-02T11:22:55.721Z,11.80
2018-12-02T11:23:56.081Z,11.82
2018-12-02T11:24:56.513Z,11.84
2018-12-02T11:25:56.834Z,11.85
2018-12-02T11:26:57.201Z,11.88
2018-12-02T11:27:57.587Z,11.90
2018-12-02T11:28:58.104Z,11.92
2018-12-02T11:29:58.496Z,11.95
2018-12-02T11:30:58.851Z,11.97
2018-12-02T11:31:59.246Z,12.00
2018-12-02T11:32:59.604Z,12.02
2018-12-02T11:33:59.980Z,12.05
2018-12-02T11:35:00.269Z,12.08
2018-12-02T11:36:00.536Z,12.10
2018-12-02T11:37:00.737Z,12.13
2018-12-02T11:38:01.406Z,12.15
2018-12-02T11:39:01.793Z,12.17
2018-12-02T11:40:02.098Z,12.19
2018-12-02T11:41:02.479Z,12.21
2018-12-02T11:42:02.699Z,12.24
2018-12-02T11:43:03.003Z,12.26
2018-12-02T11:44:03.305Z,12.29
2018-12-02T11:45:03.600Z,12.31
2018-12-02T11:46:03.942Z,12.33
2018-12-02T11:47:04.245Z,12.36
2018-12-02T11:48:04.577Z,12.37
2018-12-02T11:49:04.797Z,12.40
2018-12-02T11:50:05.088Z,12.42
2018-12-02T11:51:05.583Z,12.44
2018-12-02T11:52:05.922Z,12.47
2018-12-02T11:53:06.236Z,12.50
2018-12-02T11:54:06.609Z,12.52
2018-12-02T11:55:07.323Z,12.54
2018-12-02T11:56:07.617Z,12.56
2018-12-02T11:57:07.897Z,12.57
2018-12-02T11:58:08.110Z,12.58
2018-12-02T11:59:08.629Z,12.58
2018-12-02T11:59:18.620Z,12.73
2018-12-02T12:00:19.992Z,12.73
2018-12-02T12:01:19.439Z,12.73
2018-12-02T12:02:19.764Z,12.73
2018-12-02T12:03:21.197Z,12.73
2018-12-02T12:04:21.591Z,12.73
2018-12-02T12:05:21.880Z,12.73
2018-12-02T12:06:22.251Z,12.74
2018-12-02T12:07:22.624Z,12.74
2018-12-02T12:08:22.897Z,12.74
2018-12-02T12:09:23.411Z,12.75
2018-12-02T12:10:24.187Z,12.75
2018-12-02T12:11:24.571Z,12.75
2018-12-02T12:12:24.911Z,12.76
2018-12-02T12:13:25.163Z,12.76
2018-12-02T12:14:25.485Z,12.77
2018-12-02T12:15:25.717Z,12.77
2018-12-02T12:16:25.905Z,12.78
2018-12-02T12:17:26.210Z,12.78
2018-12-02T12:18:26.985Z,12.79
2018-12-02T12:19:27.425Z,12.79
2018-12-02T12:20:27.865Z,12.80
2018-12-02T12:21:28.208Z,12.81
2018-12-02T12:22:28.469Z,12.82
2018-12-02T12:23:28.923Z,12.82
2018-12-02T12:24:29.291Z,12.83
2018-12-02T12:25:29.639Z,12.83
2018-12-02T12:26:29.942Z,12.83
2018-12-02T12:27:30.344Z,12.83
2018-12-02T12:28:30.737Z,12.83
2018-12-02T12:29:30.938Z,12.84
2018-12-02T12:30:31.251Z,12.84
2018-12-02T12:31:31.653Z,12.84
2018-12-02T12:32:31.853Z,12.85
2018-12-02T12:33:32.176Z,12.86
2018-12-02T12:34:32.459Z,12.87
2018-12-02T12:35:32.833Z,12.87
2018-12-02T12:36:33.188Z,12.88
2018-12-02T12:37:33.477Z,12.89
2018-12-02T12:38:33.894Z,12.90
2018-12-02T12:39:34.425Z,12.91
2018-12-02T12:40:34.763Z,12.92
2018-12-02T12:41:35.303Z,12.93
2018-12-02T12:42:35.554Z,12.93
2018-12-02T12:43:35.831Z,12.93
2018-12-02T12:44:36.206Z,12.93
2018-12-02T12:45:36.462Z,12.93
2018-12-02T12:45:46.421Z,12.91
2018-12-02T12:46:47.581Z,12.91
2018-12-02T12:47:47.973Z,12.91
2018-12-02T12:48:48.193Z,12.91
2018-12-02T12:49:48.669Z,12.92
2018-12-02T12:50:49.303Z,12.92
2018-12-02T12:51:49.645Z,12.92
2018-12-02T12:52:49.958Z,12.93
2018-12-02T12:53:50.271Z,12.94
2018-12-02T12:54:50.571Z,12.95
2018-12-02T12:55:51.282Z,12.95
2018-12-02T12:56:50.217Z,12.96
2018-12-02T12:57:51.501Z,12.97
2018-12-02T12:58:51.689Z,12.98
2018-12-02T12:59:52.115Z,13.00
2018-12-02T13:00:52.619Z,13.00
2018-12-02T13:01:52.846Z,13.01
2018-12-02T13:02:53.078Z,13.02
2018-12-02T13:03:53.267Z,13.03
2018-12-02T13:04:53.725Z,13.03